Terminal Aerodrome Forecast
Issued by NWS Charleston, WV

Current Version | Previous Version | Graphics & Text | Print | Product List | Glossary On
Versions: 1 2 3 4 5 6 7 8 9 10 11 12 13 14 15 16 17 18 19 20 21 22 23 24 25 26 27
000
FTUS41 KRLX 190500 RRA
TAFEKN
TAF
KEKN 190545Z 1906/2006 00000KT 6SM BR SCT005
      TEMPO 1907/1909 4SM BR BKN003
     FM190900 00000KT 2SM BR SCT001 BKN010
      TEMPO 1909/1913 1/4SM FG VV001
     FM191500 00000KT 4SM BR BKN009
     FM191600 00000KT 5SM BR BKN015
     FM191700 VRB03KT 6SM BR BKN025
     FM191900 31004KT P6SM VCTS BKN040CB
     FM200300 00000KT 6SM BR VCTS BKN025CB
     FM200500 00000KT 4SM SHRA BR VCTS BKN040CB=

USA.gov is the U.S. government's official web portal to all federal, state and local government web resources and services.